createdAt,value
2017-12-19T00:01:46.452Z,3.90
2017-12-19T00:04:14.607Z,3.90
2017-12-19T00:06:42.817Z,3.90
2017-12-19T00:09:10.233Z,3.90
2017-12-19T00:11:37.660Z,4.00
2017-12-19T00:14:05.066Z,4.00
2017-12-19T00:16:32.589Z,4.00
2017-12-19T00:19:00.057Z,4.00
2017-12-19T00:21:27.528Z,4.00
2017-12-19T00:23:54.945Z,4.00
2017-12-19T00:26:22.374Z,3.90
2017-12-19T00:28:49.793Z,3.90
2017-12-19T00:31:17.212Z,3.90
2017-12-19T00:33:44.617Z,3.90
2017-12-19T00:36:12.042Z,3.90
2017-12-19T00:38:39.460Z,3.90
2017-12-19T00:41:06.881Z,3.90
2017-12-19T00:43:34.339Z,3.90
2017-12-19T00:46:01.798Z,4.00
2017-12-19T00:48:29.216Z,4.00
2017-12-19T00:50:56.648Z,3.90
2017-12-19T00:53:24.084Z,3.90
2017-12-19T00:55:51.483Z,3.90
2017-12-19T00:58:18.901Z,3.90
2017-12-19T01:00:46.338Z,3.90
2017-12-19T01:03:13.789Z,3.90
2017-12-19T01:05:41.217Z,3.90
2017-12-19T01:08:09.398Z,3.90
2017-12-19T01:10:36.831Z,3.90
2017-12-19T01:13:04.269Z,3.90
2017-12-19T01:15:31.685Z,3.90
2017-12-19T01:17:59.111Z,3.90
2017-12-19T01:20:26.522Z,3.90
2017-12-19T01:22:53.952Z,3.90
2017-12-19T01:25:21.373Z,3.90
2017-12-19T01:27:49.622Z,3.90
2017-12-19T01:30:17.125Z,3.80
2017-12-19T01:32:44.797Z,3.80
2017-12-19T01:35:13.794Z,3.90
2017-12-19T01:37:41.223Z,3.90
2017-12-19T01:40:09.310Z,3.90
2017-12-19T01:42:36.767Z,3.90
2017-12-19T01:45:04.238Z,3.80
2017-12-19T01:47:31.650Z,3.90
2017-12-19T01:49:59.070Z,3.80
2017-12-19T01:52:26.490Z,3.80
2017-12-19T01:54:54.733Z,3.80
2017-12-19T01:57:22.202Z,3.80
2017-12-19T01:59:49.682Z,3.90
2017-12-19T02:02:17.093Z,3.80
2017-12-19T02:04:44.512Z,3.80
2017-12-19T02:07:11.954Z,3.80
2017-12-19T02:09:39.373Z,3.80
2017-12-19T02:12:06.785Z,3.70
2017-12-19T02:14:34.990Z,3.70
2017-12-19T02:17:02.491Z,3.70
2017-12-19T02:19:29.917Z,3.80
2017-12-19T02:21:57.345Z,3.80
2017-12-19T02:24:24.767Z,3.80
2017-12-19T02:26:52.180Z,3.80
2017-12-19T02:29:19.613Z,3.80
2017-12-19T02:31:47.085Z,3.70
2017-12-19T02:34:14.542Z,3.70
2017-12-19T02:36:41.958Z,3.70
2017-12-19T02:39:09.382Z,3.70
2017-12-19T02:41:36.808Z,3.70
2017-12-19T02:44:04.214Z,3.70
2017-12-19T02:46:31.631Z,3.70
2017-12-19T02:48:59.057Z,3.60
2017-12-19T02:51:26.489Z,3.60
2017-12-19T02:53:54.708Z,3.60
2017-12-19T02:56:22.112Z,3.60
2017-12-19T02:58:49.670Z,3.60
2017-12-19T03:01:17.081Z,3.60
2017-12-19T03:03:45.299Z,3.60
2017-12-19T03:06:12.735Z,3.60
2017-12-19T03:08:40.269Z,3.60
2017-12-19T03:11:07.694Z,3.50
2017-12-19T03:13:35.179Z,3.50
2017-12-19T03:16:02.586Z,3.50
2017-12-19T03:18:30.010Z,3.50
2017-12-19T03:20:57.430Z,3.50
2017-12-19T03:23:24.865Z,3.50
2017-12-19T03:25:52.281Z,3.50
2017-12-19T03:28:20.500Z,3.50
2017-12-19T03:30:47.915Z,3.50
2017-12-19T03:33:15.370Z,3.50
2017-12-19T03:35:42.785Z,3.60
2017-12-19T03:38:10.206Z,3.60
2017-12-19T03:40:37.634Z,3.60
2017-12-19T03:43:05.094Z,3.50
2017-12-19T03:45:32.513Z,3.60
2017-12-19T03:47:59.965Z,3.60
2017-12-19T03:50:27.396Z,3.60
2017-12-19T03:52:55.622Z,3.60
2017-12-19T03:55:23.027Z,3.50
2017-12-19T03:57:50.539Z,3.60
2017-12-19T04:00:18.701Z,3.50
2017-12-19T04:02:46.882Z,3.60
2017-12-19T04:05:15.055Z,3.50
2017-12-19T04:07:42.472Z,3.60
2017-12-19T04:10:09.930Z,3.60
2017-12-19T04:12:37.394Z,3.50
2017-12-19T04:15:04.809Z,3.60
2017-12-19T04:17:32.235Z,3.60
2017-12-19T04:19:59.644Z,3.60
2017-12-19T04:22:27.071Z,3.60
2017-12-19T04:24:54.563Z,3.60
2017-12-19T04:27:21.951Z,3.60
2017-12-19T04:29:49.370Z,3.60
2017-12-19T04:32:16.782Z,3.60
2017-12-19T04:34:44.205Z,3.60
2017-12-19T04:37:11.619Z,3.50
2017-12-19T04:39:39.059Z,3.60
2017-12-19T04:42:06.507Z,3.60
2017-12-19T04:44:33.977Z,3.60
2017-12-19T04:47:01.398Z,3.60
2017-12-19T04:49:28.812Z,3.60
2017-12-19T04:51:56.237Z,3.60
2017-12-19T04:54:23.751Z,3.60
2017-12-19T04:56:51.168Z,3.60
2017-12-19T04:59:18.592Z,3.60
2017-12-19T05:01:46.008Z,3.60
2017-12-19T05:04:13.474Z,3.60
2017-12-19T05:06:40.857Z,3.60
2017-12-19T05:09:09.045Z,3.60
2017-12-19T05:11:37.227Z,3.70
2017-12-19T05:14:04.647Z,3.70
2017-12-19T05:16:32.101Z,3.70
2017-12-19T05:18:59.522Z,3.60
2017-12-19T05:21:26.932Z,3.60
2017-12-19T05:23:54.338Z,3.70
2017-12-19T05:26:21.790Z,3.60
2017-12-19T05:28:49.206Z,3.60
2017-12-19T05:31:16.709Z,3.60
2017-12-19T05:33:44.133Z,3.60
2017-12-19T05:36:11.644Z,3.60
2017-12-19T05:38:39.125Z,3.70
2017-12-19T05:41:06.537Z,3.70
2017-12-19T05:43:34.054Z,3.70
2017-12-19T05:46:01.531Z,3.70
2017-12-19T05:48:28.953Z,3.70
2017-12-19T05:50:56.384Z,3.70
2017-12-19T05:53:23.799Z,3.70
2017-12-19T05:55:52.015Z,3.70
2017-12-19T05:58:19.429Z,3.70
2017-12-19T06:00:46.858Z,3.70
2017-12-19T06:03:14.274Z,3.70
2017-12-19T06:05:41.693Z,3.80
2017-12-19T06:08:09.124Z,3.80
2017-12-19T06:10:37.298Z,3.80
2017-12-19T06:13:05.481Z,3.80
2017-12-19T06:15:32.999Z,3.80
2017-12-19T06:18:01.169Z,3.80
2017-12-19T06:20:28.761Z,3.80
2017-12-19T06:22:56.162Z,3.80
2017-12-19T06:25:23.586Z,3.80
2017-12-19T06:27:51.054Z,3.80
2017-12-19T06:30:18.524Z,3.90
2017-12-19T06:32:45.993Z,3.90
2017-12-19T06:35:13.429Z,3.80
2017-12-19T06:37:41.767Z,3.80
2017-12-19T06:40:09.203Z,3.90
2017-12-19T06:42:36.694Z,3.90
2017-12-19T06:45:04.139Z,3.90
2017-12-19T06:47:32.341Z,3.90
2017-12-19T06:49:59.810Z,4.00
2017-12-19T06:52:27.239Z,3.90
2017-12-19T06:54:54.793Z,4.00
2017-12-19T06:57:22.218Z,4.00
2017-12-19T06:59:49.691Z,4.00
2017-12-19T07:02:17.272Z,4.00
2017-12-19T07:04:44.663Z,4.00
2017-12-19T07:07:12.106Z,4.00
2017-12-19T07:09:39.581Z,4.00
2017-12-19T07:12:07.142Z,4.00
2017-12-19T07:14:34.555Z,4.00
2017-12-19T07:17:01.987Z,4.00
2017-12-19T07:19:29.447Z,4.00
2017-12-19T07:21:56.863Z,4.00
2017-12-19T07:24:24.384Z,4.00
2017-12-19T07:26:52.570Z,4.00
2017-12-19T07:29:20.044Z,4.00
2017-12-19T07:31:47.457Z,4.10
2017-12-19T07:34:14.872Z,4.10
2017-12-19T07:36:42.359Z,4.10
2017-12-19T07:39:09.770Z,4.10
2017-12-19T07:41:37.962Z,4.10
2017-12-19T07:44:06.159Z,4.10
2017-12-19T07:46:34.344Z,4.20
2017-12-19T07:49:02.556Z,4.20
2017-12-19T07:51:30.035Z,4.20
2017-12-19T07:53:57.533Z,4.20
2017-12-19T07:56:24.949Z,4.20
2017-12-19T07:58:52.367Z,4.20
2017-12-19T08:01:19.818Z,4.30
2017-12-19T08:03:47.280Z,4.30
2017-12-19T08:06:14.694Z,4.30
2017-12-19T08:08:42.907Z,4.30
2017-12-19T08:11:10.386Z,4.30
2017-12-19T08:13:37.833Z,4.40
2017-12-19T08:16:05.256Z,4.30
2017-12-19T08:18:32.681Z,4.30
2017-12-19T08:21:00.098Z,4.40
2017-12-19T08:23:27.530Z,4.40
2017-12-19T08:25:54.999Z,4.40
2017-12-19T08:28:22.461Z,4.40
2017-12-19T08:30:50.448Z,4.50
2017-12-19T08:33:17.868Z,4.40
2017-12-19T08:35:45.374Z,4.50
2017-12-19T08:38:12.799Z,4.50
2017-12-19T08:40:40.318Z,4.50
2017-12-19T08:43:07.794Z,4.50
2017-12-19T08:45:35.202Z,4.50
2017-12-19T08:48:02.737Z,4.50
2017-12-19T08:50:30.152Z,4.60
2017-12-19T08:52:57.570Z,4.60
2017-12-19T08:55:24.997Z,4.60
2017-12-19T08:57:52.454Z,4.60
2017-12-19T09:00:19.857Z,4.60
2017-12-19T09:02:47.286Z,4.70
2017-12-19T09:05:14.726Z,4.60
2017-12-19T09:07:42.160Z,4.60
2017-12-19T09:10:09.596Z,4.60
2017-12-19T09:12:37.217Z,4.70
2017-12-19T09:15:05.398Z,4.80
2017-12-19T09:17:32.866Z,4.70
2017-12-19T09:20:00.325Z,4.80
2017-12-19T09:22:27.742Z,4.70
2017-12-19T09:24:55.172Z,4.80
2017-12-19T09:27:22.656Z,4.80
2017-12-19T09:29:50.122Z,4.80
2017-12-19T09:32:17.578Z,4.80
2017-12-19T09:34:45.002Z,4.80
2017-12-19T09:37:12.421Z,4.90
2017-12-19T09:39:39.949Z,4.90
2017-12-19T09:42:08.129Z,4.90
2017-12-19T09:44:36.358Z,4.90
2017-12-19T09:47:03.766Z,4.90
2017-12-19T09:49:31.405Z,5.00
2017-12-19T09:51:59.596Z,5.10
2017-12-19T09:54:27.006Z,5.00
2017-12-19T09:56:54.512Z,5.10
2017-12-19T09:59:21.996Z,5.10
2017-12-19T10:01:50.195Z,5.10
2017-12-19T10:04:17.690Z,5.10
2017-12-19T10:06:45.261Z,5.20
2017-12-19T10:09:12.697Z,5.20
2017-12-19T10:11:40.113Z,5.20
2017-12-19T10:14:08.333Z,5.20
2017-12-19T10:16:36.501Z,5.20
2017-12-19T10:19:04.682Z,5.30
2017-12-19T10:21:32.925Z,5.30
2017-12-19T10:24:00.366Z,5.20
2017-12-19T10:26:27.790Z,5.30
2017-12-19T10:28:55.237Z,5.30
2017-12-19T10:31:23.499Z,5.30
2017-12-19T10:33:51.263Z,5.30
2017-12-19T10:36:19.458Z,5.30
2017-12-19T10:38:47.622Z,5.30
2017-12-19T10:41:15.105Z,5.30
2017-12-19T10:43:42.718Z,5.30
2017-12-19T10:46:10.130Z,5.30
2017-12-19T10:48:37.579Z,5.30
2017-12-19T10:51:05.838Z,5.30
2017-12-19T10:53:33.267Z,5.30
2017-12-19T10:56:00.744Z,5.30
2017-12-19T10:58:28.309Z,5.30
2017-12-19T11:00:55.739Z,5.30
2017-12-19T11:03:23.220Z,5.40
2017-12-19T11:05:51.449Z,5.40
2017-12-19T11:08:18.934Z,5.30
2017-12-19T11:10:46.492Z,5.40
2017-12-19T11:13:13.879Z,5.50
2017-12-19T11:15:41.304Z,5.60
2017-12-19T11:18:08.736Z,5.60
2017-12-19T11:20:36.167Z,5.60
2017-12-19T11:23:03.702Z,5.60
2017-12-19T11:25:31.194Z,5.60
2017-12-19T11:27:58.606Z,5.70
2017-12-19T11:30:26.162Z,5.60
2017-12-19T11:32:53.563Z,5.60
2017-12-19T11:35:21.790Z,5.80
2017-12-19T11:37:49.234Z,5.80
2017-12-19T11:40:16.729Z,5.80
2017-12-19T11:42:44.189Z,5.80
2017-12-19T11:45:11.874Z,5.80
2017-12-19T11:47:39.269Z,5.70
2017-12-19T11:50:06.693Z,5.70
2017-12-19T11:52:34.118Z,5.70
2017-12-19T11:55:01.536Z,5.70
2017-12-19T11:57:28.962Z,5.70
2017-12-19T11:59:57.158Z,5.70
2017-12-19T12:02:24.563Z,5.80
2017-12-19T12:04:52.024Z,5.80
2017-12-19T12:07:19.504Z,5.80
2017-12-19T12:09:46.962Z,5.70
2017-12-19T12:12:14.470Z,5.70
2017-12-19T12:14:41.882Z,5.60
2017-12-19T12:17:09.298Z,5.60
2017-12-19T12:19:36.717Z,5.70
2017-12-19T12:22:04.151Z,5.70
2017-12-19T12:24:31.573Z,5.70
2017-12-19T12:26:59.733Z,5.80
2017-12-19T12:29:27.947Z,5.80
2017-12-19T12:31:55.410Z,5.80
2017-12-19T12:34:22.995Z,5.80
2017-12-19T12:36:50.458Z,5.80
2017-12-19T12:39:17.869Z,5.80
2017-12-19T12:41:45.290Z,5.80
2017-12-19T12:44:12.722Z,5.90
2017-12-19T12:46:40.941Z,5.90
2017-12-19T12:49:08.371Z,5.90
2017-12-19T12:51:35.783Z,5.90
2017-12-19T12:54:03.181Z,5.90
2017-12-19T12:56:30.624Z,5.90
2017-12-19T12:58:58.023Z,5.90
2017-12-19T13:01:25.446Z,6.00
2017-12-19T13:03:52.863Z,6.00
2017-12-19T13:06:20.311Z,6.00
2017-12-19T13:08:47.749Z,6.10
2017-12-19T13:11:15.174Z,6.10
2017-12-19T13:13:42.689Z,6.10
2017-12-19T13:16:10.839Z,6.00
2017-12-19T13:18:38.202Z,6.00
2017-12-19T13:21:07.132Z,5.90
2017-12-19T13:23:35.337Z,6.00
2017-12-19T13:26:02.790Z,5.90
2017-12-19T13:28:30.219Z,6.00
2017-12-19T13:30:57.762Z,5.90
2017-12-19T13:33:25.211Z,6.00
2017-12-19T13:35:52.695Z,6.00
2017-12-19T13:38:20.149Z,6.00
2017-12-19T13:40:47.550Z,6.00
2017-12-19T13:43:14.962Z,5.90
2017-12-19T13:45:43.172Z,5.90
2017-12-19T13:48:10.588Z,5.90
2017-12-19T13:50:38.110Z,6.00
2017-12-19T13:53:05.579Z,6.00
2017-12-19T13:55:33.018Z,6.00
2017-12-19T13:58:01.236Z,5.90
2017-12-19T14:00:28.637Z,5.90
2017-12-19T14:02:56.055Z,6.00
2017-12-19T14:05:23.461Z,5.90
2017-12-19T14:07:50.906Z,6.00
2017-12-19T14:10:19.164Z,6.00
2017-12-19T14:12:46.506Z,5.90
2017-12-19T14:15:13.927Z,6.00
2017-12-19T14:17:41.401Z,6.00
2017-12-19T14:20:08.976Z,6.00
2017-12-19T14:22:36.394Z,6.00
2017-12-19T14:25:03.796Z,6.00
2017-12-19T14:27:31.273Z,6.00
2017-12-19T14:29:58.746Z,6.00
2017-12-19T14:32:26.162Z,6.10
2017-12-19T14:34:53.607Z,6.00
2017-12-19T14:37:21.072Z,6.00
2017-12-19T14:39:48.541Z,6.10
2017-12-19T14:42:15.971Z,6.00
2017-12-19T14:44:43.428Z,6.00
2017-12-19T14:47:11.629Z,6.00
2017-12-19T14:49:39.074Z,6.00
2017-12-19T14:52:07.285Z,6.00
2017-12-19T14:54:34.706Z,6.00
2017-12-19T14:57:02.132Z,6.00
2017-12-19T14:59:29.550Z,6.00
2017-12-19T15:01:57.067Z,6.10
2017-12-19T15:04:24.539Z,6.00
2017-12-19T15:06:52.022Z,6.00
2017-12-19T15:09:19.429Z,6.00
2017-12-19T15:11:46.841Z,6.00
2017-12-19T15:14:14.319Z,6.00
2017-12-19T15:16:41.718Z,6.00
2017-12-19T15:19:09.567Z,6.00
2017-12-19T15:21:36.946Z,6.00
2017-12-19T15:24:04.395Z,6.00
2017-12-19T15:26:31.781Z,6.00
2017-12-19T15:28:59.217Z,6.00
2017-12-19T15:31:26.643Z,6.00
2017-12-19T15:33:54.087Z,5.90
2017-12-19T15:36:21.512Z,6.00
2017-12-19T15:38:49.001Z,6.00
2017-12-19T15:41:16.474Z,6.00
2017-12-19T15:43:43.858Z,6.00
2017-12-19T15:46:11.306Z,6.00
2017-12-19T15:48:38.724Z,6.00
2017-12-19T15:51:06.230Z,6.00
2017-12-19T15:53:33.652Z,5.90
2017-12-19T15:56:01.062Z,5.90
2017-12-19T15:58:29.264Z,5.90
2017-12-19T16:00:56.768Z,5.90
2017-12-19T16:03:24.165Z,5.90
2017-12-19T16:05:52.346Z,6.00
2017-12-19T16:08:19.754Z,5.90
2017-12-19T16:10:47.189Z,5.90
2017-12-19T16:13:15.386Z,5.90
2017-12-19T16:15:43.610Z,5.90
2017-12-19T16:18:11.030Z,5.90
2017-12-19T16:20:39.212Z,6.00
2017-12-19T16:23:06.627Z,6.00
2017-12-19T16:25:34.073Z,6.00
2017-12-19T16:28:01.556Z,6.00
2017-12-19T16:30:29.035Z,6.00
2017-12-19T16:32:56.490Z,6.00
2017-12-19T16:35:23.918Z,6.00
2017-12-19T16:37:51.331Z,6.00
2017-12-19T16:40:18.738Z,6.00
2017-12-19T16:42:46.279Z,6.00
2017-12-19T16:45:13.690Z,6.00
2017-12-19T16:47:41.526Z,6.00
2017-12-19T16:50:08.926Z,6.00
2017-12-19T16:52:36.435Z,6.00
2017-12-19T16:55:03.907Z,5.90
2017-12-19T16:57:31.321Z,6.00
2017-12-19T16:59:58.763Z,6.00
2017-12-19T17:02:26.166Z,5.90
2017-12-19T17:04:53.587Z,5.90
2017-12-19T17:07:21.006Z,5.90
2017-12-19T17:09:49.173Z,5.90
2017-12-19T17:12:16.603Z,5.90
2017-12-19T17:14:44.010Z,5.90
2017-12-19T17:17:11.417Z,5.90
2017-12-19T17:19:39.630Z,6.00
2017-12-19T17:22:07.104Z,6.00
2017-12-19T17:24:34.675Z,6.00
2017-12-19T17:27:02.825Z,6.00
2017-12-19T17:29:31.045Z,6.00
2017-12-19T17:31:59.196Z,6.00
2017-12-19T17:34:27.372Z,6.00
2017-12-19T17:36:55.599Z,6.00
2017-12-19T17:39:23.103Z,6.00
2017-12-19T17:41:50.522Z,6.00
2017-12-19T17:44:18.018Z,6.00
2017-12-19T17:46:45.434Z,6.00
2017-12-19T17:49:13.663Z,6.00
2017-12-19T17:51:41.131Z,6.00
2017-12-19T17:54:08.597Z,6.00
2017-12-19T17:56:36.066Z,6.10
2017-12-19T17:59:03.475Z,6.10
2017-12-19T18:01:30.876Z,6.10
2017-12-19T18:03:59.085Z,6.10
2017-12-19T18:06:26.486Z,6.10
2017-12-19T18:08:53.926Z,6.10
2017-12-19T18:11:21.382Z,6.10
2017-12-19T18:13:48.874Z,6.10
2017-12-19T18:16:16.265Z,6.10
2017-12-19T18:18:43.685Z,6.10
2017-12-19T18:21:11.099Z,6.10
2017-12-19T18:23:38.506Z,6.10
2017-12-19T18:26:06.685Z,6.10
2017-12-19T18:28:34.191Z,6.10
2017-12-19T18:31:01.675Z,6.10
2017-12-19T18:33:29.148Z,6.10
2017-12-19T18:35:56.566Z,6.10
2017-12-19T18:38:24.749Z,6.10
2017-12-19T18:40:52.929Z,6.10
2017-12-19T18:43:21.159Z,6.10
2017-12-19T18:45:49.317Z,6.10
2017-12-19T18:48:17.502Z,6.10
2017-12-19T18:50:45.682Z,6.10
2017-12-19T18:53:13.870Z,6.20
2017-12-19T18:55:42.047Z,6.10
2017-12-19T18:58:09.511Z,6.10
2017-12-19T19:00:36.926Z,6.10
2017-12-19T19:03:04.339Z,6.00
2017-12-19T19:05:31.872Z,6.10
2017-12-19T19:07:59.282Z,6.10
2017-12-19T19:10:26.811Z,6.10
2017-12-19T19:12:54.226Z,6.20
2017-12-19T19:15:21.645Z,7.00
2017-12-19T19:17:49.103Z,7.80
2017-12-19T19:20:16.531Z,8.40
2017-12-19T19:22:43.939Z,8.90
2017-12-19T19:25:11.493Z,9.20
2017-12-19T19:27:38.901Z,9.10
2017-12-19T19:30:06.354Z,8.60
2017-12-19T19:32:33.771Z,8.20
2017-12-19T19:35:01.278Z,7.90
2017-12-19T19:37:28.702Z,7.50
2017-12-19T19:39:56.939Z,6.90
2017-12-19T19:42:25.184Z,6.80
2017-12-19T19:44:52.595Z,6.80
2017-12-19T19:47:20.765Z,6.60
2017-12-19T19:49:48.178Z,6.60
2017-12-19T19:52:15.602Z,6.50
2017-12-19T19:54:43.083Z,6.50
2017-12-19T19:57:10.518Z,6.40
2017-12-19T19:59:38.030Z,6.40
2017-12-19T20:02:05.446Z,6.40
2017-12-19T20:04:32.845Z,6.30
2017-12-19T20:07:00.259Z,6.30
2017-12-19T20:09:27.681Z,6.20
2017-12-19T20:11:55.104Z,6.20
2017-12-19T20:14:22.626Z,6.20
2017-12-19T20:16:50.089Z,6.20
2017-12-19T20:19:17.494Z,6.20
2017-12-19T20:21:44.906Z,6.20
2017-12-19T20:24:13.098Z,6.20
2017-12-19T20:26:41.289Z,6.20
2017-12-19T20:29:08.715Z,6.20
2017-12-19T20:31:37.782Z,6.10
2017-12-19T20:34:05.197Z,6.10
2017-12-19T20:36:32.627Z,6.00
2017-12-19T20:39:00.045Z,6.00
2017-12-19T20:41:27.657Z,6.00
2017-12-19T20:43:55.835Z,5.90
2017-12-19T20:46:24.022Z,5.90
2017-12-19T20:48:51.433Z,5.80
2017-12-19T20:51:18.842Z,5.90
2017-12-19T20:53:47.120Z,5.90
2017-12-19T20:56:14.614Z,5.90
2017-12-19T20:58:42.026Z,5.90
2017-12-19T21:01:09.514Z,5.90
2017-12-19T21:03:36.994Z,5.80
2017-12-19T21:06:05.221Z,5.80
2017-12-19T21:08:32.631Z,5.80
2017-12-19T21:11:00.063Z,5.80
2017-12-19T21:13:27.478Z,5.90
2017-12-19T21:15:55.698Z,5.90
2017-12-19T21:18:23.122Z,5.90
2017-12-19T21:20:50.529Z,5.90
2017-12-19T21:23:18.007Z,5.90
2017-12-19T21:25:45.423Z,5.90
2017-12-19T21:28:12.838Z,5.90
2017-12-19T21:30:40.261Z,5.90
2017-12-19T21:33:07.680Z,5.90
2017-12-19T21:35:35.150Z,5.90
2017-12-19T21:38:02.557Z,5.90
2017-12-19T21:40:29.986Z,5.90
2017-12-19T21:42:57.404Z,5.90
2017-12-19T21:45:24.816Z,5.90
2017-12-19T21:47:52.222Z,5.90
2017-12-19T21:50:19.634Z,5.90
2017-12-19T21:52:47.134Z,6.00
2017-12-19T21:55:14.554Z,5.90
2017-12-19T21:57:41.971Z,5.90
2017-12-19T22:00:09.434Z,5.90
2017-12-19T22:02:36.895Z,5.90
2017-12-19T22:05:04.366Z,5.90
2017-12-19T22:07:32.542Z,5.90
2017-12-19T22:10:00.010Z,5.90
2017-12-19T22:12:27.486Z,5.90
2017-12-19T22:14:54.964Z,5.90
2017-12-19T22:17:22.425Z,6.00
2017-12-19T22:19:49.937Z,6.00
2017-12-19T22:22:17.357Z,6.00
2017-12-19T22:24:44.827Z,6.00
2017-12-19T22:27:12.248Z,6.00
2017-12-19T22:29:39.668Z,6.00
2017-12-19T22:32:07.091Z,6.00
2017-12-19T22:34:34.511Z,6.00
2017-12-19T22:37:01.970Z,6.10
2017-12-19T22:39:29.433Z,6.00
2017-12-19T22:41:56.849Z,6.00
2017-12-19T22:44:24.253Z,6.00
2017-12-19T22:46:52.433Z,6.00
2017-12-19T22:49:20.763Z,5.90
2017-12-19T22:51:48.215Z,5.90
2017-12-19T22:54:15.670Z,6.00
2017-12-19T22:56:43.867Z,5.90
2017-12-19T22:59:12.051Z,5.80
2017-12-19T23:01:39.460Z,5.80
2017-12-19T23:04:06.870Z,5.90
2017-12-19T23:06:35.113Z,5.90
2017-12-19T23:09:03.227Z,5.90
2017-12-19T23:11:30.645Z,5.90
2017-12-19T23:13:58.099Z,6.00
2017-12-19T23:16:25.506Z,6.00
2017-12-19T23:18:52.913Z,6.00
2017-12-19T23:21:21.134Z,6.10
2017-12-19T23:23:48.594Z,6.00
2017-12-19T23:26:16.023Z,6.10
2017-12-19T23:28:43.430Z,6.10
2017-12-19T23:31:10.897Z,6.10
2017-12-19T23:33:38.333Z,6.20
2017-12-19T23:36:05.746Z,6.20
2017-12-19T23:38:33.174Z,6.20
2017-12-19T23:41:00.578Z,6.20
2017-12-19T23:43:28.000Z,6.10
2017-12-19T23:45:55.407Z,6.20
2017-12-19T23:48:22.822Z,6.20
2017-12-19T23:50:50.234Z,6.40
2017-12-19T23:53:17.645Z,6.40
2017-12-19T23:55:45.093Z,6.40
2017-12-19T23:58:12.477Z,6.40
